sensor_id;sensor_type;location;lat;lon;timestamp;P1;durP1;ratioP1;P2;durP2;ratioP2
65636;SDS011;52327;42.622;23.316;2022-10-30T00:00:28;2.45;;;0.47;;
65636;SDS011;52327;42.622;23.316;2022-10-30T00:02:54;1.05;;;0.40;;
65636;SDS011;52327;42.622;23.316;2022-10-30T00:05:19;2.03;;;0.60;;
65636;SDS011;52327;42.622;23.316;2022-10-30T00:07:45;0.10;;;0.10;;
65636;SDS011;52327;42.622;23.316;2022-10-30T00:10:11;0.30;;;0.30;;
65636;SDS011;52327;42.622;23.316;2022-10-30T00:12:37;0.10;;;0.10;;
65636;SDS011;52327;42.622;23.316;2022-10-30T00:15:03;0.13;;;0.13;;
65636;SDS011;52327;42.622;23.316;2022-10-30T00:17:29;0.20;;;0.20;;
65636;SDS011;52327;42.622;23.316;2022-10-30T00:19:54;0.30;;;0.30;;
65636;SDS011;52327;42.622;23.316;2022-10-30T00:22:20;1.00;;;0.30;;
65636;SDS011;52327;42.622;23.316;2022-10-30T00:24:45;0.55;;;0.45;;
65636;SDS011;52327;42.622;23.316;2022-10-30T00:27:10;0.10;;;0.10;;
65636;SDS011;52327;42.622;23.316;2022-10-30T00:29:36;0.35;;;0.35;;
65636;SDS011;52327;42.622;23.316;2022-10-30T00:32:01;0.75;;;0.30;;
65636;SDS011;52327;42.622;23.316;2022-10-30T00:34:27;0.13;;;0.13;;
65636;SDS011;52327;42.622;23.316;2022-10-30T00:36:52;0.75;;;0.50;;
65636;SDS011;52327;42.622;23.316;2022-10-30T00:39:17;0.43;;;0.43;;
65636;SDS011;52327;42.622;23.316;2022-10-30T00:41:43;0.20;;;0.20;;
65636;SDS011;52327;42.622;23.316;2022-10-30T00:47:05;0.20;;;0.13;;
65636;SDS011;52327;42.622;23.316;2022-10-30T00:52:23;0.75;;;0.40;;
65636;SDS011;52327;42.622;23.316;2022-10-30T00:54:52;0.10;;;0.10;;
65636;SDS011;52327;42.622;23.316;2022-10-30T00:57:21;0.73;;;0.57;;
65636;SDS011;52327;42.622;23.316;2022-10-30T00:59:47;0.32;;;0.20;;
65636;SDS011;52327;42.622;23.316;2022-10-30T01:02:13;0.08;;;0.08;;
65636;SDS011;52327;42.622;23.316;2022-10-30T01:04:38;0.20;;;0.20;;
65636;SDS011;52327;42.622;23.316;2022-10-30T01:07:07;0.20;;;0.20;;
65636;SDS011;52327;42.622;23.316;2022-10-30T01:09:35;0.43;;;0.40;;
65636;SDS011;52327;42.622;23.316;2022-10-30T01:12:02;0.10;;;0.10;;
65636;SDS011;52327;42.622;23.316;2022-10-30T01:14:27;0.20;;;0.20;;
65636;SDS011;52327;42.622;23.316;2022-10-30T01:31:01;0.17;;;0.17;;
65636;SDS011;52327;42.622;23.316;2022-10-30T01:36:12;0.17;;;0.17;;
65636;SDS011;52327;42.622;23.316;2022-10-30T01:38:50;0.65;;;0.30;;
65636;SDS011;52327;42.622;23.316;2022-10-30T01:41:20;0.32;;;0.30;;
65636;SDS011;52327;42.622;23.316;2022-10-30T01:43:46;0.10;;;0.10;;
65636;SDS011;52327;42.622;23.316;2022-10-30T01:57:18;0.20;;;0.20;;
65636;SDS011;52327;42.622;23.316;2022-10-30T02:02:35;0.38;;;0.38;;
65636;SDS011;52327;42.622;23.316;2022-10-30T02:05:01;0.35;;;0.35;;
65636;SDS011;52327;42.622;23.316;2022-10-30T02:07:28;0.10;;;0.10;;
65636;SDS011;52327;42.622;23.316;2022-10-30T02:09:53;0.00;;;0.00;;
65636;SDS011;52327;42.622;23.316;2022-10-30T02:12:19;0.20;;;0.20;;
65636;SDS011;52327;42.622;23.316;2022-10-30T02:14:47;0.22;;;0.22;;
65636;SDS011;52327;42.622;23.316;2022-10-30T02:17:16;1.80;;;0.35;;
65636;SDS011;52327;42.622;23.316;2022-10-30T02:19:42;1.58;;;0.63;;
65636;SDS011;52327;42.622;23.316;2022-10-30T02:22:09;0.20;;;0.20;;
65636;SDS011;52327;42.622;23.316;2022-10-30T02:24:35;0.20;;;0.20;;
65636;SDS011;52327;42.622;23.316;2022-10-30T02:27:00;0.45;;;0.32;;
65636;SDS011;52327;42.622;23.316;2022-10-30T02:29:26;0.20;;;0.20;;
65636;SDS011;52327;42.622;23.316;2022-10-30T02:31:52;0.10;;;0.10;;
65636;SDS011;52327;42.622;23.316;2022-10-30T02:34:17;0.47;;;0.20;;
65636;SDS011;52327;42.622;23.316;2022-10-30T02:36:43;0.32;;;0.32;;
65636;SDS011;52327;42.622;23.316;2022-10-30T02:39:08;0.40;;;0.40;;
65636;SDS011;52327;42.622;23.316;2022-10-30T02:41:34;5.32;;;0.47;;
65636;SDS011;52327;42.622;23.316;2022-10-30T02:43:59;0.38;;;0.38;;
65636;SDS011;52327;42.622;23.316;2022-10-30T02:46:25;0.20;;;0.20;;
65636;SDS011;52327;42.622;23.316;2022-10-30T02:48:51;0.10;;;0.10;;
65636;SDS011;52327;42.622;23.316;2022-10-30T02:51:16;0.20;;;0.20;;
65636;SDS011;52327;42.622;23.316;2022-10-30T02:53:42;1.00;;;0.50;;
65636;SDS011;52327;42.622;23.316;2022-10-30T02:56:08;0.13;;;0.13;;
65636;SDS011;52327;42.622;23.316;2022-10-30T02:58:36;0.60;;;0.60;;
65636;SDS011;52327;42.622;23.316;2022-10-30T03:01:09;0.65;;;0.63;;
65636;SDS011;52327;42.622;23.316;2022-10-30T03:03:39;0.57;;;0.57;;
65636;SDS011;52327;42.622;23.316;2022-10-30T03:06:06;0.38;;;0.28;;
65636;SDS011;52327;42.622;23.316;2022-10-30T03:08:33;0.77;;;0.57;;
65636;SDS011;52327;42.622;23.316;2022-10-30T03:11:04;0.73;;;0.30;;
65636;SDS011;52327;42.622;23.316;2022-10-30T03:13:34;0.73;;;0.50;;
65636;SDS011;52327;42.622;23.316;2022-10-30T03:16:01;0.30;;;0.30;;
65636;SDS011;52327;42.622;23.316;2022-10-30T03:18:27;2.38;;;1.40;;
65636;SDS011;52327;42.622;23.316;2022-10-30T03:20:59;1.13;;;1.02;;
65636;SDS011;52327;42.622;23.316;2022-10-30T03:23:27;1.92;;;1.42;;
65636;SDS011;52327;42.622;23.316;2022-10-30T03:25:53;0.80;;;0.70;;
65636;SDS011;52327;42.622;23.316;2022-10-30T03:28:21;1.00;;;0.73;;
65636;SDS011;52327;42.622;23.316;2022-10-30T03:30:47;1.23;;;0.57;;
65636;SDS011;52327;42.622;23.316;2022-10-30T03:33:13;0.38;;;0.38;;
65636;SDS011;52327;42.622;23.316;2022-10-30T03:35:38;0.80;;;0.60;;
65636;SDS011;52327;42.622;23.316;2022-10-30T03:38:03;0.60;;;0.47;;
65636;SDS011;52327;42.622;23.316;2022-10-30T03:40:30;0.55;;;0.38;;
65636;SDS011;52327;42.622;23.316;2022-10-30T03:42:55;0.60;;;0.40;;
65636;SDS011;52327;42.622;23.316;2022-10-30T03:45:21;2.15;;;0.55;;
65636;SDS011;52327;42.622;23.316;2022-10-30T03:47:46;0.40;;;0.40;;
65636;SDS011;52327;42.622;23.316;2022-10-30T03:50:11;0.10;;;0.10;;
65636;SDS011;52327;42.622;23.316;2022-10-30T03:52:37;0.68;;;0.63;;
65636;SDS011;52327;42.622;23.316;2022-10-30T03:55:02;1.40;;;0.75;;
65636;SDS011;52327;42.622;23.316;2022-10-30T03:57:28;1.33;;;1.05;;
65636;SDS011;52327;42.622;23.316;2022-10-30T03:59:53;1.15;;;0.95;;
65636;SDS011;52327;42.622;23.316;2022-10-30T04:02:19;0.32;;;0.32;;
65636;SDS011;52327;42.622;23.316;2022-10-30T04:04:44;0.43;;;0.38;;
65636;SDS011;52327;42.622;23.316;2022-10-30T04:07:09;0.35;;;0.30;;
65636;SDS011;52327;42.622;23.316;2022-10-30T04:09:35;0.32;;;0.32;;
65636;SDS011;52327;42.622;23.316;2022-10-30T04:12:00;2.05;;;1.08;;
65636;SDS011;52327;42.622;23.316;2022-10-30T04:14:25;0.73;;;0.60;;
65636;SDS011;52327;42.622;23.316;2022-10-30T04:16:51;0.50;;;0.50;;
65636;SDS011;52327;42.622;23.316;2022-10-30T04:19:16;0.20;;;0.20;;
65636;SDS011;52327;42.622;23.316;2022-10-30T04:21:42;0.40;;;0.40;;
65636;SDS011;52327;42.622;23.316;2022-10-30T04:24:08;0.10;;;0.10;;
65636;SDS011;52327;42.622;23.316;2022-10-30T04:26:34;0.30;;;0.30;;
65636;SDS011;52327;42.622;23.316;2022-10-30T04:28:59;0.20;;;0.20;;
65636;SDS011;52327;42.622;23.316;2022-10-30T04:31:24;0.40;;;0.40;;
65636;SDS011;52327;42.622;23.316;2022-10-30T04:33:50;0.28;;;0.28;;
65636;SDS011;52327;42.622;23.316;2022-10-30T04:36:15;0.68;;;0.68;;
65636;SDS011;52327;42.622;23.316;2022-10-30T04:38:42;0.30;;;0.30;;
65636;SDS011;52327;42.622;23.316;2022-10-30T04:41:07;0.47;;;0.40;;
65636;SDS011;52327;42.622;23.316;2022-10-30T04:43:33;0.30;;;0.30;;
65636;SDS011;52327;42.622;23.316;2022-10-30T04:45:58;0.22;;;0.22;;
65636;SDS011;52327;42.622;23.316;2022-10-30T04:48:28;1.35;;;0.95;;
65636;SDS011;52327;42.622;23.316;2022-10-30T04:50:53;0.90;;;0.35;;
65636;SDS011;52327;42.622;23.316;2022-10-30T04:53:18;0.63;;;0.47;;
65636;SDS011;52327;42.622;23.316;2022-10-30T04:55:45;0.55;;;0.47;;
65636;SDS011;52327;42.622;23.316;2022-10-30T04:58:11;0.75;;;0.75;;
65636;SDS011;52327;42.622;23.316;2022-10-30T05:00:37;0.82;;;0.60;;
65636;SDS011;52327;42.622;23.316;2022-10-30T05:03:02;0.55;;;0.50;;
65636;SDS011;52327;42.622;23.316;2022-10-30T05:05:28;0.65;;;0.45;;
65636;SDS011;52327;42.622;23.316;2022-10-30T05:07:54;0.55;;;0.38;;
65636;SDS011;52327;42.622;23.316;2022-10-30T05:10:20;0.57;;;0.57;;
65636;SDS011;52327;42.622;23.316;2022-10-30T05:12:45;0.40;;;0.35;;
65636;SDS011;52327;42.622;23.316;2022-10-30T05:15:12;0.43;;;0.43;;
65636;SDS011;52327;42.622;23.316;2022-10-30T05:17:38;0.20;;;0.20;;
65636;SDS011;52327;42.622;23.316;2022-10-30T05:20:04;7.32;;;0.52;;
65636;SDS011;52327;42.622;23.316;2022-10-30T05:22:31;0.75;;;0.75;;
65636;SDS011;52327;42.622;23.316;2022-10-30T05:24:56;0.75;;;0.50;;
65636;SDS011;52327;42.622;23.316;2022-10-30T05:27:22;0.10;;;0.10;;
65636;SDS011;52327;42.622;23.316;2022-10-30T05:29:47;0.47;;;0.47;;
65636;SDS011;52327;42.622;23.316;2022-10-30T05:32:13;0.75;;;0.70;;
65636;SDS011;52327;42.622;23.316;2022-10-30T05:34:38;0.55;;;0.50;;
65636;SDS011;52327;42.622;23.316;2022-10-30T05:37:03;0.93;;;0.55;;
65636;SDS011;52327;42.622;23.316;2022-10-30T05:39:29;1.17;;;0.88;;
65636;SDS011;52327;42.622;23.316;2022-10-30T05:41:54;1.55;;;1.30;;
65636;SDS011;52327;42.622;23.316;2022-10-30T05:44:19;2.00;;;1.48;;
65636;SDS011;52327;42.622;23.316;2022-10-30T05:46:45;0.75;;;0.75;;
65636;SDS011;52327;42.622;23.316;2022-10-30T05:49:10;2.50;;;1.98;;
65636;SDS011;52327;42.622;23.316;2022-10-30T05:51:36;3.28;;;1.60;;
65636;SDS011;52327;42.622;23.316;2022-10-30T05:54:01;2.53;;;1.80;;
65636;SDS011;52327;42.622;23.316;2022-10-30T05:56:26;2.20;;;1.55;;
65636;SDS011;52327;42.622;23.316;2022-10-30T05:58:52;1.13;;;0.93;;
65636;SDS011;52327;42.622;23.316;2022-10-30T06:01:17;1.83;;;1.02;;
65636;SDS011;52327;42.622;23.316;2022-10-30T06:03:43;1.00;;;0.85;;
65636;SDS011;52327;42.622;23.316;2022-10-30T06:06:08;1.95;;;0.93;;
65636;SDS011;52327;42.622;23.316;2022-10-30T06:08:34;0.63;;;0.60;;
65636;SDS011;52327;42.622;23.316;2022-10-30T06:10:59;2.00;;;1.40;;
65636;SDS011;52327;42.622;23.316;2022-10-30T06:13:27;2.58;;;1.85;;
65636;SDS011;52327;42.622;23.316;2022-10-30T06:15:55;1.17;;;1.08;;
65636;SDS011;52327;42.622;23.316;2022-10-30T06:18:21;1.08;;;1.00;;
65636;SDS011;52327;42.622;23.316;2022-10-30T06:20:47;1.80;;;1.65;;
65636;SDS011;52327;42.622;23.316;2022-10-30T06:23:13;3.90;;;2.92;;
65636;SDS011;52327;42.622;23.316;2022-10-30T06:25:39;4.20;;;2.95;;
65636;SDS011;52327;42.622;23.316;2022-10-30T06:28:04;3.15;;;2.75;;
65636;SDS011;52327;42.622;23.316;2022-10-30T06:30:30;3.97;;;3.33;;
65636;SDS011;52327;42.622;23.316;2022-10-30T06:32:56;5.53;;;2.55;;
65636;SDS011;52327;42.622;23.316;2022-10-30T06:35:22;4.93;;;2.60;;
65636;SDS011;52327;42.622;23.316;2022-10-30T06:37:48;4.20;;;1.73;;
65636;SDS011;52327;42.622;23.316;2022-10-30T06:40:14;4.80;;;2.42;;
65636;SDS011;52327;42.622;23.316;2022-10-30T06:42:41;3.67;;;2.20;;
65636;SDS011;52327;42.622;23.316;2022-10-30T06:45:13;3.28;;;2.65;;
65636;SDS011;52327;42.622;23.316;2022-10-30T06:47:39;3.45;;;2.58;;
65636;SDS011;52327;42.622;23.316;2022-10-30T06:50:06;3.13;;;2.30;;
65636;SDS011;52327;42.622;23.316;2022-10-30T06:52:33;5.43;;;3.33;;
65636;SDS011;52327;42.622;23.316;2022-10-30T06:54:59;5.35;;;2.85;;
65636;SDS011;52327;42.622;23.316;2022-10-30T06:57:24;5.03;;;2.75;;
65636;SDS011;52327;42.622;23.316;2022-10-30T06:59:50;5.00;;;3.15;;
65636;SDS011;52327;42.622;23.316;2022-10-30T07:02:16;8.10;;;3.95;;
65636;SDS011;52327;42.622;23.316;2022-10-30T07:04:41;4.20;;;2.58;;
65636;SDS011;52327;42.622;23.316;2022-10-30T07:07:07;5.05;;;3.55;;
65636;SDS011;52327;42.622;23.316;2022-10-30T07:09:32;4.93;;;3.80;;
65636;SDS011;52327;42.622;23.316;2022-10-30T07:11:58;6.03;;;4.65;;
65636;SDS011;52327;42.622;23.316;2022-10-30T07:14:23;10.25;;;4.05;;
65636;SDS011;52327;42.622;23.316;2022-10-30T07:16:49;13.95;;;4.15;;
65636;SDS011;52327;42.622;23.316;2022-10-30T07:19:14;5.88;;;3.97;;
65636;SDS011;52327;42.622;23.316;2022-10-30T07:21:40;5.63;;;4.18;;
65636;SDS011;52327;42.622;23.316;2022-10-30T07:24:05;8.35;;;5.10;;
65636;SDS011;52327;42.622;23.316;2022-10-30T07:26:31;8.30;;;4.55;;
65636;SDS011;52327;42.622;23.316;2022-10-30T07:28:57;4.47;;;3.75;;
65636;SDS011;52327;42.622;23.316;2022-10-30T07:31:23;8.27;;;5.43;;
65636;SDS011;52327;42.622;23.316;2022-10-30T07:33:48;8.50;;;4.75;;
65636;SDS011;52327;42.622;23.316;2022-10-30T07:36:14;4.63;;;3.67;;
65636;SDS011;52327;42.622;23.316;2022-10-30T07:38:40;4.07;;;3.33;;
65636;SDS011;52327;42.622;23.316;2022-10-30T07:41:06;5.70;;;3.63;;
65636;SDS011;52327;42.622;23.316;2022-10-30T07:43:31;7.70;;;4.85;;
65636;SDS011;52327;42.622;23.316;2022-10-30T07:45:56;11.90;;;6.75;;
65636;SDS011;52327;42.622;23.316;2022-10-30T07:48:22;7.65;;;5.18;;
65636;SDS011;52327;42.622;23.316;2022-10-30T07:50:47;5.60;;;4.32;;
65636;SDS011;52327;42.622;23.316;2022-10-30T07:53:13;6.05;;;3.80;;
65636;SDS011;52327;42.622;23.316;2022-10-30T07:55:38;10.25;;;3.55;;
65636;SDS011;52327;42.622;23.316;2022-10-30T07:58:05;7.50;;;4.35;;
65636;SDS011;52327;42.622;23.316;2022-10-30T08:00:31;5.45;;;3.65;;
65636;SDS011;52327;42.622;23.316;2022-10-30T08:02:56;7.22;;;4.38;;
65636;SDS011;52327;42.622;23.316;2022-10-30T09:03:15;25.80;;;16.27;;
65636;SDS011;52327;42.622;23.316;2022-10-30T09:05:40;38.80;;;16.90;;
65636;SDS011;52327;42.622;23.316;2022-10-30T09:08:06;14.30;;;8.70;;
65636;SDS011;52327;42.622;23.316;2022-10-30T09:10:31;5.85;;;3.67;;
65636;SDS011;52327;42.622;23.316;2022-10-30T09:12:57;5.53;;;3.70;;
65636;SDS011;52327;42.622;23.316;2022-10-30T09:15:23;5.53;;;3.97;;
65636;SDS011;52327;42.622;23.316;2022-10-30T09:17:56;6.40;;;4.28;;
65636;SDS011;52327;42.622;23.316;2022-10-30T09:20:24;4.75;;;3.40;;
65636;SDS011;52327;42.622;23.316;2022-10-30T09:22:49;5.07;;;3.50;;
65636;SDS011;52327;42.622;23.316;2022-10-30T09:25:15;6.68;;;4.07;;
65636;SDS011;52327;42.622;23.316;2022-10-30T09:27:41;7.82;;;4.45;;
65636;SDS011;52327;42.622;23.316;2022-10-30T09:30:06;5.45;;;3.67;;
65636;SDS011;52327;42.622;23.316;2022-10-30T09:32:32;7.20;;;4.75;;
65636;SDS011;52327;42.622;23.316;2022-10-30T09:34:58;5.70;;;3.80;;
65636;SDS011;52327;42.622;23.316;2022-10-30T09:37:23;5.63;;;3.85;;
65636;SDS011;52327;42.622;23.316;2022-10-30T09:39:49;6.72;;;4.45;;
65636;SDS011;52327;42.622;23.316;2022-10-30T09:47:55;6.93;;;4.65;;
65636;SDS011;52327;42.622;23.316;2022-10-30T09:50:34;4.75;;;3.70;;
65636;SDS011;52327;42.622;23.316;2022-10-30T09:53:37;6.45;;;4.30;;
65636;SDS011;52327;42.622;23.316;2022-10-30T09:56:22;43.30;;;24.33;;
65636;SDS011;52327;42.622;23.316;2022-10-30T09:59:06;15.88;;;9.48;;
65636;SDS011;52327;42.622;23.316;2022-10-30T10:01:41;7.18;;;4.70;;
65636;SDS011;52327;42.622;23.316;2022-10-30T10:06:42;6.57;;;4.80;;
65636;SDS011;52327;42.622;23.316;2022-10-30T10:09:21;5.18;;;3.42;;
65636;SDS011;52327;42.622;23.316;2022-10-30T10:11:57;5.57;;;3.20;;
65636;SDS011;52327;42.622;23.316;2022-10-30T10:14:26;4.63;;;3.60;;
65636;SDS011;52327;42.622;23.316;2022-10-30T10:16:59;11.10;;;3.47;;
65636;SDS011;52327;42.622;23.316;2022-10-30T10:19:37;6.30;;;4.05;;
65636;SDS011;52327;42.622;23.316;2022-10-30T10:22:20;6.07;;;3.40;;
65636;SDS011;52327;42.622;23.316;2022-10-30T10:24:49;5.93;;;3.45;;
65636;SDS011;52327;42.622;23.316;2022-10-30T10:48:50;4.90;;;2.72;;
65636;SDS011;52327;42.622;23.316;2022-10-30T10:51:38;3.85;;;2.25;;
65636;SDS011;52327;42.622;23.316;2022-10-30T10:54:10;3.63;;;2.20;;
65636;SDS011;52327;42.622;23.316;2022-10-30T10:56:45;4.15;;;2.72;;
65636;SDS011;52327;42.622;23.316;2022-10-30T11:01:43;3.63;;;2.15;;
65636;SDS011;52327;42.622;23.316;2022-10-30T11:04:26;10.95;;;2.25;;
65636;SDS011;52327;42.622;23.316;2022-10-30T11:07:14;3.15;;;2.00;;
65636;SDS011;52327;42.622;23.316;2022-10-30T11:09:42;2.90;;;2.10;;
65636;SDS011;52327;42.622;23.316;2022-10-30T11:12:09;3.15;;;1.45;;
65636;SDS011;52327;42.622;23.316;2022-10-30T11:14:34;3.00;;;1.80;;
65636;SDS011;52327;42.622;23.316;2022-10-30T11:17:09;2.55;;;1.65;;
65636;SDS011;52327;42.622;23.316;2022-10-30T11:19:43;7.28;;;2.63;;
65636;SDS011;52327;42.622;23.316;2022-10-30T11:22:20;3.72;;;2.05;;
65636;SDS011;52327;42.622;23.316;2022-10-30T11:24:47;4.32;;;1.38;;
65636;SDS011;52327;42.622;23.316;2022-10-30T11:29:56;2.45;;;1.65;;
65636;SDS011;52327;42.622;23.316;2022-10-30T11:32:28;1.90;;;1.30;;
65636;SDS011;52327;42.622;23.316;2022-10-30T11:34:59;2.72;;;1.42;;
65636;SDS011;52327;42.622;23.316;2022-10-30T11:37:31;3.67;;;2.08;;
65636;SDS011;52327;42.622;23.316;2022-10-30T11:40:01;2.25;;;1.67;;
65636;SDS011;52327;42.622;23.316;2022-10-30T11:42:33;3.10;;;1.42;;
65636;SDS011;52327;42.622;23.316;2022-10-30T11:45:00;2.35;;;1.40;;
65636;SDS011;52327;42.622;23.316;2022-10-30T11:47:30;2.65;;;1.35;;
65636;SDS011;52327;42.622;23.316;2022-10-30T11:49:59;2.13;;;1.55;;
65636;SDS011;52327;42.622;23.316;2022-10-30T11:52:27;3.03;;;1.43;;
65636;SDS011;52327;42.622;23.316;2022-10-30T11:55:39;2.13;;;1.13;;
65636;SDS011;52327;42.622;23.316;2022-10-30T11:57:42;1.63;;;1.35;;
65636;SDS011;52327;42.622;23.316;2022-10-30T12:00:15;2.00;;;1.38;;
65636;SDS011;52327;42.622;23.316;2022-10-30T12:02:44;1.92;;;1.10;;
65636;SDS011;52327;42.622;23.316;2022-10-30T12:08:32;0.90;;;0.77;;
65636;SDS011;52327;42.622;23.316;2022-10-30T12:10:45;1.17;;;1.08;;
65636;SDS011;52327;42.622;23.316;2022-10-30T12:13:19;2.35;;;1.25;;
65636;SDS011;52327;42.622;23.316;2022-10-30T12:15:46;1.95;;;1.13;;
65636;SDS011;52327;42.622;23.316;2022-10-30T12:18:16;1.48;;;0.93;;
65636;SDS011;52327;42.622;23.316;2022-10-30T12:20:45;1.50;;;1.08;;
65636;SDS011;52327;42.622;23.316;2022-10-30T12:25:44;1.58;;;1.10;;
65636;SDS011;52327;42.622;23.316;2022-10-30T12:28:15;2.75;;;1.08;;
65636;SDS011;52327;42.622;23.316;2022-10-30T12:30:53;2.00;;;1.02;;
65636;SDS011;52327;42.622;23.316;2022-10-30T12:33:21;2.85;;;1.35;;
65636;SDS011;52327;42.622;23.316;2022-10-30T12:35:58;0.90;;;0.90;;
65636;SDS011;52327;42.622;23.316;2022-10-30T12:41:14;1.10;;;0.85;;
65636;SDS011;52327;42.622;23.316;2022-10-30T12:43:41;1.40;;;0.93;;
65636;SDS011;52327;42.622;23.316;2022-10-30T12:54:34;3.97;;;0.95;;
65636;SDS011;52327;42.622;23.316;2022-10-30T12:57:12;1.48;;;1.30;;
65636;SDS011;52327;42.622;23.316;2022-10-30T13:13:46;1.10;;;0.77;;
65636;SDS011;52327;42.622;23.316;2022-10-30T13:16:15;2.53;;;1.00;;
65636;SDS011;52327;42.622;23.316;2022-10-30T13:18:46;1.83;;;1.27;;
65636;SDS011;52327;42.622;23.316;2022-10-30T13:21:26;2.65;;;1.17;;
65636;SDS011;52327;42.622;23.316;2022-10-30T13:24:22;2.40;;;1.02;;
65636;SDS011;52327;42.622;23.316;2022-10-30T13:27:14;1.42;;;0.77;;
65636;SDS011;52327;42.622;23.316;2022-10-30T13:29:48;3.63;;;2.03;;
65636;SDS011;52327;42.622;23.316;2022-10-30T13:32:38;1.98;;;1.23;;
65636;SDS011;52327;42.622;23.316;2022-10-30T13:35:32;5.90;;;2.38;;
65636;SDS011;52327;42.622;23.316;2022-10-30T13:54:29;1.65;;;1.17;;
65636;SDS011;52327;42.622;23.316;2022-10-30T13:57:03;2.35;;;1.20;;
65636;SDS011;52327;42.622;23.316;2022-10-30T14:02:33;2.25;;;1.33;;
65636;SDS011;52327;42.622;23.316;2022-10-30T14:05:29;1.23;;;0.77;;
65636;SDS011;52327;42.622;23.316;2022-10-30T14:20:41;0.90;;;0.65;;
65636;SDS011;52327;42.622;23.316;2022-10-30T14:23:14;1.40;;;1.13;;
65636;SDS011;52327;42.622;23.316;2022-10-30T14:25:44;2.55;;;0.90;;
65636;SDS011;52327;42.622;23.316;2022-10-30T14:28:53;2.88;;;1.27;;
65636;SDS011;52327;42.622;23.316;2022-10-30T14:31:31;3.22;;;0.90;;
65636;SDS011;52327;42.622;23.316;2022-10-30T14:33:58;1.13;;;0.90;;
65636;SDS011;52327;42.622;23.316;2022-10-30T14:56:09;1.52;;;1.10;;
65636;SDS011;52327;42.622;23.316;2022-10-30T15:01:46;1.85;;;0.90;;
65636;SDS011;52327;42.622;23.316;2022-10-30T15:15:12;2.05;;;1.00;;
65636;SDS011;52327;42.622;23.316;2022-10-30T15:17:41;1.33;;;1.05;;
65636;SDS011;52327;42.622;23.316;2022-10-30T15:20:14;1.67;;;1.02;;
65636;SDS011;52327;42.622;23.316;2022-10-30T15:23:26;3.40;;;1.02;;
65636;SDS011;52327;42.622;23.316;2022-10-30T15:25:46;1.27;;;0.68;;
65636;SDS011;52327;42.622;23.316;2022-10-30T15:28:19;0.65;;;0.60;;
65636;SDS011;52327;42.622;23.316;2022-10-30T15:33:34;1.83;;;0.90;;
65636;SDS011;52327;42.622;23.316;2022-10-30T15:36:01;6.25;;;1.23;;
65636;SDS011;52327;42.622;23.316;2022-10-30T15:38:28;2.45;;;1.33;;
65636;SDS011;52327;42.622;23.316;2022-10-30T15:41:11;1.92;;;0.90;;
65636;SDS011;52327;42.622;23.316;2022-10-30T15:43:39;1.00;;;0.70;;
65636;SDS011;52327;42.622;23.316;2022-10-30T15:46:10;1.13;;;0.80;;
65636;SDS011;52327;42.622;23.316;2022-10-30T15:48:37;1.90;;;1.38;;
65636;SDS011;52327;42.622;23.316;2022-10-30T15:51:21;3.97;;;1.52;;
65636;SDS011;52327;42.622;23.316;2022-10-30T15:53:50;1.23;;;0.70;;
65636;SDS011;52327;42.622;23.316;2022-10-30T15:59:02;0.80;;;0.70;;
65636;SDS011;52327;42.622;23.316;2022-10-30T16:01:34;1.60;;;0.80;;
65636;SDS011;52327;42.622;23.316;2022-10-30T16:04:20;3.92;;;1.85;;
65636;SDS011;52327;42.622;23.316;2022-10-30T16:06:59;1.40;;;0.70;;
65636;SDS011;52327;42.622;23.316;2022-10-30T16:09:28;0.93;;;0.55;;
65636;SDS011;52327;42.622;23.316;2022-10-30T16:11:56;1.45;;;1.02;;
65636;SDS011;52327;42.622;23.316;2022-10-30T16:14:24;3.35;;;0.82;;
65636;SDS011;52327;42.622;23.316;2022-10-30T16:16:52;1.17;;;0.70;;
65636;SDS011;52327;42.622;23.316;2022-10-30T16:19:19;1.15;;;0.95;;
65636;SDS011;52327;42.622;23.316;2022-10-30T16:21:51;1.15;;;1.00;;
65636;SDS011;52327;42.622;23.316;2022-10-30T16:24:17;0.60;;;0.50;;
65636;SDS011;52327;42.622;23.316;2022-10-30T16:26:44;1.38;;;0.60;;
65636;SDS011;52327;42.622;23.316;2022-10-30T16:29:16;1.55;;;0.95;;
65636;SDS011;52327;42.622;23.316;2022-10-30T16:31:48;1.70;;;0.88;;
65636;SDS011;52327;42.622;23.316;2022-10-30T16:36:58;2.22;;;1.13;;
65636;SDS011;52327;42.622;23.316;2022-10-30T16:39:25;1.00;;;0.77;;
65636;SDS011;52327;42.622;23.316;2022-10-30T16:41:54;1.58;;;1.05;;
65636;SDS011;52327;42.622;23.316;2022-10-30T16:44:25;1.13;;;0.85;;
65636;SDS011;52327;42.622;23.316;2022-10-30T16:46:57;3.05;;;0.90;;
65636;SDS011;52327;42.622;23.316;2022-10-30T16:49:31;2.33;;;0.70;;
65636;SDS011;52327;42.622;23.316;2022-10-30T16:51:59;1.13;;;0.68;;
65636;SDS011;52327;42.622;23.316;2022-10-30T16:57:02;1.48;;;0.90;;
65636;SDS011;52327;42.622;23.316;2022-10-30T16:59:47;1.75;;;1.38;;
65636;SDS011;52327;42.622;23.316;2022-10-30T17:02:18;1.23;;;0.73;;
65636;SDS011;52327;42.622;23.316;2022-10-30T17:04:51;2.40;;;1.35;;
65636;SDS011;52327;42.622;23.316;2022-10-30T17:07:21;2.15;;;0.80;;
65636;SDS011;52327;42.622;23.316;2022-10-30T17:09:49;3.92;;;1.02;;
65636;SDS011;52327;42.622;23.316;2022-10-30T17:12:26;1.35;;;0.98;;
65636;SDS011;52327;42.622;23.316;2022-10-30T17:15:09;1.40;;;0.88;;
65636;SDS011;52327;42.622;23.316;2022-10-30T17:17:38;2.28;;;1.20;;
65636;SDS011;52327;42.622;23.316;2022-10-30T17:22:31;2.00;;;0.90;;
65636;SDS011;52327;42.622;23.316;2022-10-30T17:24:57;1.02;;;0.68;;
65636;SDS011;52327;42.622;23.316;2022-10-30T17:29:58;1.95;;;0.95;;
65636;SDS011;52327;42.622;23.316;2022-10-30T17:32:26;1.13;;;0.85;;
65636;SDS011;52327;42.622;23.316;2022-10-30T17:37:48;2.03;;;0.85;;
65636;SDS011;52327;42.622;23.316;2022-10-30T17:40:14;1.30;;;0.77;;
65636;SDS011;52327;42.622;23.316;2022-10-30T17:42:41;4.35;;;1.30;;
65636;SDS011;52327;42.622;23.316;2022-10-30T17:45:14;4.00;;;1.40;;
65636;SDS011;52327;42.622;23.316;2022-10-30T17:47:40;5.43;;;1.67;;
65636;SDS011;52327;42.622;23.316;2022-10-30T17:50:06;3.03;;;1.00;;
65636;SDS011;52327;42.622;23.316;2022-10-30T17:52:32;1.45;;;0.82;;
65636;SDS011;52327;42.622;23.316;2022-10-30T17:54:57;0.98;;;0.65;;
65636;SDS011;52327;42.622;23.316;2022-10-30T17:57:23;0.93;;;0.60;;
65636;SDS011;52327;42.622;23.316;2022-10-30T17:59:51;0.80;;;0.80;;
65636;SDS011;52327;42.622;23.316;2022-10-30T18:02:17;1.17;;;0.73;;
65636;SDS011;52327;42.622;23.316;2022-10-30T18:04:44;4.90;;;1.73;;
65636;SDS011;52327;42.622;23.316;2022-10-30T18:07:12;1.08;;;0.98;;
65636;SDS011;52327;42.622;23.316;2022-10-30T18:09:39;1.95;;;1.00;;
65636;SDS011;52327;42.622;23.316;2022-10-30T18:12:05;0.82;;;0.73;;
65636;SDS011;52327;42.622;23.316;2022-10-30T18:14:32;2.88;;;0.88;;
65636;SDS011;52327;42.622;23.316;2022-10-30T18:16:57;0.88;;;0.77;;
65636;SDS011;52327;42.622;23.316;2022-10-30T18:19:23;1.00;;;0.82;;
65636;SDS011;52327;42.622;23.316;2022-10-30T18:21:48;1.92;;;0.90;;
65636;SDS011;52327;42.622;23.316;2022-10-30T18:24:16;1.10;;;0.90;;
65636;SDS011;52327;42.622;23.316;2022-10-30T18:26:41;2.05;;;0.93;;
65636;SDS011;52327;42.622;23.316;2022-10-30T18:29:07;0.88;;;0.65;;
65636;SDS011;52327;42.622;23.316;2022-10-30T18:31:33;3.30;;;0.77;;
65636;SDS011;52327;42.622;23.316;2022-10-30T18:33:59;3.67;;;1.27;;
65636;SDS011;52327;42.622;23.316;2022-10-30T18:36:24;1.42;;;0.93;;
65636;SDS011;52327;42.622;23.316;2022-10-30T18:38:50;0.75;;;0.75;;
65636;SDS011;52327;42.622;23.316;2022-10-30T18:41:22;1.13;;;0.60;;
65636;SDS011;52327;42.622;23.316;2022-10-30T18:43:55;1.10;;;0.60;;
65636;SDS011;52327;42.622;23.316;2022-10-30T18:46:20;0.77;;;0.52;;